sensor_id;sensor_type;location;lat;lon;timestamp;P1;durP1;ratioP1;P2;durP2;ratioP2
65558;SDS011;52203;51.998;5.140;2023-04-03T00:02:09;5.43;;;1.60;;
65558;SDS011;52203;51.998;5.140;2023-04-03T00:39:26;3.95;;;1.67;;
65558;SDS011;52203;51.998;5.140;2023-04-03T04:59:24;4.15;;;2.28;;
65558;SDS011;52203;51.998;5.140;2023-04-03T05:03:33;5.40;;;1.85;;
65558;SDS011;52203;51.998;5.140;2023-04-03T06:16:29;6.40;;;2.45;;
65558;SDS011;52203;51.998;5.140;2023-04-03T06:27:04;6.80;;;2.63;;
65558;SDS011;52203;51.998;5.140;2023-04-03T06:53:38;4.68;;;2.10;;
65558;SDS011;52203;51.998;5.140;2023-04-03T06:56:03;6.03;;;1.95;;
65558;SDS011;52203;51.998;5.140;2023-04-03T06:58:29;4.53;;;2.10;;
65558;SDS011;52203;51.998;5.140;2023-04-03T07:00:55;5.47;;;2.13;;
65558;SDS011;52203;51.998;5.140;2023-04-03T07:03:20;3.95;;;2.00;;
65558;SDS011;52203;51.998;5.140;2023-04-03T07:05:46;8.07;;;2.28;;
65558;SDS011;52203;51.998;5.140;2023-04-03T07:08:11;4.93;;;2.28;;
65558;SDS011;52203;51.998;5.140;2023-04-03T07:10:37;5.57;;;2.00;;
65558;SDS011;52203;51.998;5.140;2023-04-03T07:13:03;4.65;;;2.03;;
65558;SDS011;52203;51.998;5.140;2023-04-03T07:15:28;6.07;;;2.20;;
65558;SDS011;52203;51.998;5.140;2023-04-03T07:17:54;4.65;;;2.00;;
65558;SDS011;52203;51.998;5.140;2023-04-03T07:20:20;4.65;;;2.10;;
65558;SDS011;52203;51.998;5.140;2023-04-03T07:22:46;6.32;;;2.15;;
65558;SDS011;52203;51.998;5.140;2023-04-03T07:25:11;6.05;;;2.05;;
65558;SDS011;52203;51.998;5.140;2023-04-03T07:27:37;4.50;;;2.08;;
65558;SDS011;52203;51.998;5.140;2023-04-03T07:30:02;5.85;;;2.22;;
65558;SDS011;52203;51.998;5.140;2023-04-03T07:32:28;5.20;;;2.30;;
65558;SDS011;52203;51.998;5.140;2023-04-03T07:34:54;4.55;;;1.83;;
65558;SDS011;52203;51.998;5.140;2023-04-03T07:37:19;5.70;;;2.28;;
65558;SDS011;52203;51.998;5.140;2023-04-03T07:39:45;4.32;;;2.08;;
65558;SDS011;52203;51.998;5.140;2023-04-03T07:42:11;3.92;;;2.00;;
65558;SDS011;52203;51.998;5.140;2023-04-03T07:44:37;4.32;;;2.00;;
65558;SDS011;52203;51.998;5.140;2023-04-03T07:47:03;6.53;;;2.25;;
65558;SDS011;52203;51.998;5.140;2023-04-03T07:49:28;3.70;;;1.90;;
65558;SDS011;52203;51.998;5.140;2023-04-03T07:51:54;4.50;;;1.92;;
65558;SDS011;52203;51.998;5.140;2023-04-03T07:54:19;3.83;;;1.90;;
65558;SDS011;52203;51.998;5.140;2023-04-03T07:56:45;4.40;;;2.15;;
65558;SDS011;52203;51.998;5.140;2023-04-03T07:59:10;4.45;;;2.03;;
65558;SDS011;52203;51.998;5.140;2023-04-03T08:01:36;3.65;;;2.10;;
65558;SDS011;52203;51.998;5.140;2023-04-03T08:04:02;4.95;;;3.50;;
65558;SDS011;52203;51.998;5.140;2023-04-03T08:06:28;4.40;;;1.90;;
65558;SDS011;52203;51.998;5.140;2023-04-03T08:08:59;3.33;;;1.90;;
65558;SDS011;52203;51.998;5.140;2023-04-03T08:11:25;3.60;;;1.90;;
65558;SDS011;52203;51.998;5.140;2023-04-03T08:13:51;5.85;;;2.08;;
65558;SDS011;52203;51.998;5.140;2023-04-03T08:16:18;5.03;;;1.92;;
65558;SDS011;52203;51.998;5.140;2023-04-03T08:18:47;3.65;;;1.60;;
65558;SDS011;52203;51.998;5.140;2023-04-03T08:21:13;2.80;;;1.60;;
65558;SDS011;52203;51.998;5.140;2023-04-03T08:23:40;4.40;;;3.30;;
65558;SDS011;52203;51.998;5.140;2023-04-03T08:26:12;4.57;;;1.80;;
65558;SDS011;52203;51.998;5.140;2023-04-03T08:28:39;2.80;;;1.50;;
65558;SDS011;52203;51.998;5.140;2023-04-03T08:31:06;6.07;;;1.70;;
65558;SDS011;52203;51.998;5.140;2023-04-03T08:33:36;2.60;;;1.52;;
65558;SDS011;52203;51.998;5.140;2023-04-03T08:36:06;5.93;;;1.90;;
65558;SDS011;52203;51.998;5.140;2023-04-03T08:38:33;2.20;;;1.23;;
65558;SDS011;52203;51.998;5.140;2023-04-03T08:41:25;3.35;;;1.50;;
65558;SDS011;52203;51.998;5.140;2023-04-03T08:46:54;4.80;;;1.40;;
65558;SDS011;52203;51.998;5.140;2023-04-03T08:49:28;1.88;;;1.38;;
65558;SDS011;52203;51.998;5.140;2023-04-03T08:51:57;4.55;;;1.40;;
65558;SDS011;52203;51.998;5.140;2023-04-03T08:54:37;2.45;;;1.20;;
65558;SDS011;52203;51.998;5.140;2023-04-03T08:57:15;2.58;;;1.30;;
65558;SDS011;52203;51.998;5.140;2023-04-03T08:59:42;3.53;;;1.33;;
65558;SDS011;52203;51.998;5.140;2023-04-03T09:02:24;1.63;;;0.90;;
65558;SDS011;52203;51.998;5.140;2023-04-03T09:05:16;2.28;;;1.10;;
65558;SDS011;52203;51.998;5.140;2023-04-03T09:07:45;4.22;;;1.00;;
65558;SDS011;52203;51.998;5.140;2023-04-03T09:12:59;4.25;;;0.90;;
65558;SDS011;52203;51.998;5.140;2023-04-03T09:15:32;1.40;;;0.90;;
65558;SDS011;52203;51.998;5.140;2023-04-03T09:18:06;2.40;;;0.90;;
65558;SDS011;52203;51.998;5.140;2023-04-03T09:23:58;1.73;;;0.88;;
65558;SDS011;52203;51.998;5.140;2023-04-03T09:26:28;1.58;;;0.88;;
65558;SDS011;52203;51.998;5.140;2023-04-03T09:29:01;2.03;;;0.90;;
65558;SDS011;52203;51.998;5.140;2023-04-03T09:31:41;1.77;;;0.70;;
65558;SDS011;52203;51.998;5.140;2023-04-03T09:34:30;0.90;;;0.70;;
65558;SDS011;52203;51.998;5.140;2023-04-03T09:37:00;1.08;;;0.70;;
65558;SDS011;52203;51.998;5.140;2023-04-03T09:39:31;1.48;;;0.73;;
65558;SDS011;52203;51.998;5.140;2023-04-03T09:42:23;2.60;;;0.70;;
65558;SDS011;52203;51.998;5.140;2023-04-03T09:44:57;1.10;;;0.70;;
65558;SDS011;52203;51.998;5.140;2023-04-03T09:47:31;2.53;;;1.00;;
65558;SDS011;52203;51.998;5.140;2023-04-03T09:52:38;0.80;;;0.70;;
65558;SDS011;52203;51.998;5.140;2023-04-03T09:55:23;1.50;;;0.73;;
65558;SDS011;52203;51.998;5.140;2023-04-03T09:57:57;1.33;;;0.80;;
65558;SDS011;52203;51.998;5.140;2023-04-03T10:00:30;1.20;;;0.70;;
65558;SDS011;52203;51.998;5.140;2023-04-03T10:03:03;1.45;;;0.55;;
65558;SDS011;52203;51.998;5.140;2023-04-03T10:10:42;1.45;;;0.60;;
65558;SDS011;52203;51.998;5.140;2023-04-03T10:13:29;1.45;;;0.60;;
65558;SDS011;52203;51.998;5.140;2023-04-03T10:18:41;1.08;;;0.60;;
65558;SDS011;52203;51.998;5.140;2023-04-03T10:21:54;1.63;;;0.60;;
65558;SDS011;52203;51.998;5.140;2023-04-03T10:24:10;1.92;;;0.60;;
65558;SDS011;52203;51.998;5.140;2023-04-03T10:34:56;0.68;;;0.50;;
65558;SDS011;52203;51.998;5.140;2023-04-03T10:37:48;0.80;;;0.60;;
65558;SDS011;52203;51.998;5.140;2023-04-03T10:40:47;0.45;;;0.45;;
65558;SDS011;52203;51.998;5.140;2023-04-03T10:46:00;0.73;;;0.60;;
65558;SDS011;52203;51.998;5.140;2023-04-03T10:54:11;0.50;;;0.50;;
65558;SDS011;52203;51.998;5.140;2023-04-03T10:57:01;0.80;;;0.50;;
65558;SDS011;52203;51.998;5.140;2023-04-03T10:59:33;0.68;;;0.50;;
65558;SDS011;52203;51.998;5.140;2023-04-03T11:02:11;2.70;;;0.70;;
65558;SDS011;52203;51.998;5.140;2023-04-03T11:04:37;0.75;;;0.60;;
65558;SDS011;52203;51.998;5.140;2023-04-03T11:07:15;0.90;;;0.70;;
65558;SDS011;52203;51.998;5.140;2023-04-03T11:12:18;1.27;;;0.50;;
65558;SDS011;52203;51.998;5.140;2023-04-03T11:14:58;1.60;;;1.13;;
65558;SDS011;52203;51.998;5.140;2023-04-03T11:17:28;1.08;;;0.63;;
65558;SDS011;52203;51.998;5.140;2023-04-03T11:22:35;1.50;;;0.73;;
65558;SDS011;52203;51.998;5.140;2023-04-03T11:27:40;2.10;;;0.80;;
65558;SDS011;52203;51.998;5.140;2023-04-03T11:30:23;0.93;;;0.68;;
65558;SDS011;52203;51.998;5.140;2023-04-03T11:35:54;1.85;;;0.70;;
65558;SDS011;52203;51.998;5.140;2023-04-03T11:38:35;3.40;;;1.30;;
65558;SDS011;52203;51.998;5.140;2023-04-03T11:41:04;3.00;;;0.90;;
65558;SDS011;52203;51.998;5.140;2023-04-03T11:43:32;2.45;;;0.90;;
65558;SDS011;52203;51.998;5.140;2023-04-03T11:46:05;2.00;;;0.75;;
65558;SDS011;52203;51.998;5.140;2023-04-03T11:53:38;1.50;;;0.80;;
65558;SDS011;52203;51.998;5.140;2023-04-03T12:01:46;2.03;;;0.82;;
65558;SDS011;52203;51.998;5.140;2023-04-03T12:04:12;1.88;;;1.08;;
65558;SDS011;52203;51.998;5.140;2023-04-03T12:09:24;2.55;;;1.05;;
65558;SDS011;52203;51.998;5.140;2023-04-03T12:11:52;1.55;;;0.90;;
65558;SDS011;52203;51.998;5.140;2023-04-03T12:14:21;2.42;;;0.90;;
65558;SDS011;52203;51.998;5.140;2023-04-03T12:16:50;1.80;;;0.95;;
65558;SDS011;52203;51.998;5.140;2023-04-03T12:45:58;3.88;;;0.95;;
65558;SDS011;52203;51.998;5.140;2023-04-03T12:51:14;1.50;;;0.85;;
65558;SDS011;52203;51.998;5.140;2023-04-03T12:53:42;1.65;;;0.98;;
65558;SDS011;52203;51.998;5.140;2023-04-03T12:56:19;2.28;;;1.02;;
65558;SDS011;52203;51.998;5.140;2023-04-03T12:58:53;2.60;;;1.15;;
65558;SDS011;52203;51.998;5.140;2023-04-03T13:01:23;1.20;;;0.73;;
65558;SDS011;52203;51.998;5.140;2023-04-03T13:03:54;2.20;;;1.00;;
65558;SDS011;52203;51.998;5.140;2023-04-03T13:06:28;3.33;;;1.15;;
65558;SDS011;52203;51.998;5.140;2023-04-03T13:08:59;3.75;;;1.13;;
65558;SDS011;52203;51.998;5.140;2023-04-03T13:11:35;2.53;;;0.90;;
65558;SDS011;52203;51.998;5.140;2023-04-03T13:14:04;3.47;;;0.90;;
65558;SDS011;52203;51.998;5.140;2023-04-03T13:16:39;2.85;;;1.10;;
65558;SDS011;52203;51.998;5.140;2023-04-03T13:19:06;1.40;;;0.90;;
65558;SDS011;52203;51.998;5.140;2023-04-03T13:21:40;2.00;;;0.90;;
65558;SDS011;52203;51.998;5.140;2023-04-03T13:24:06;1.42;;;0.90;;
65558;SDS011;52203;51.998;5.140;2023-04-03T13:26:34;1.98;;;1.05;;
65558;SDS011;52203;51.998;5.140;2023-04-03T13:29:05;2.78;;;1.10;;
65558;SDS011;52203;51.998;5.140;2023-04-03T13:31:36;3.03;;;0.98;;
65558;SDS011;52203;51.998;5.140;2023-04-03T13:34:10;2.58;;;1.10;;
65558;SDS011;52203;51.998;5.140;2023-04-03T13:41:39;7.53;;;1.67;;
65558;SDS011;52203;51.998;5.140;2023-04-03T13:46:54;1.50;;;0.90;;
65558;SDS011;52203;51.998;5.140;2023-04-03T13:51:48;1.52;;;0.80;;
65558;SDS011;52203;51.998;5.140;2023-04-03T13:54:22;3.50;;;1.05;;
65558;SDS011;52203;51.998;5.140;2023-04-03T13:56:55;3.40;;;1.00;;
65558;SDS011;52203;51.998;5.140;2023-04-03T13:59:24;3.70;;;1.05;;
65558;SDS011;52203;51.998;5.140;2023-04-03T14:01:54;2.20;;;1.58;;
65558;SDS011;52203;51.998;5.140;2023-04-03T14:07:11;2.40;;;1.00;;
65558;SDS011;52203;51.998;5.140;2023-04-03T14:09:38;1.90;;;0.82;;
65558;SDS011;52203;51.998;5.140;2023-04-03T14:12:46;1.60;;;0.90;;
65558;SDS011;52203;51.998;5.140;2023-04-03T14:14:56;4.63;;;1.13;;
65558;SDS011;52203;51.998;5.140;2023-04-03T14:17:25;1.63;;;0.98;;
65558;SDS011;52203;51.998;5.140;2023-04-03T14:19:52;2.10;;;1.00;;
65558;SDS011;52203;51.998;5.140;2023-04-03T14:22:30;1.85;;;0.80;;
65558;SDS011;52203;51.998;5.140;2023-04-03T14:24:57;3.30;;;1.20;;
65558;SDS011;52203;51.998;5.140;2023-04-03T14:29:55;4.78;;;1.42;;
65558;SDS011;52203;51.998;5.140;2023-04-03T14:32:22;2.05;;;0.88;;
65558;SDS011;52203;51.998;5.140;2023-04-03T14:34:49;1.73;;;0.98;;
65558;SDS011;52203;51.998;5.140;2023-04-03T14:37:19;2.47;;;1.13;;
65558;SDS011;52203;51.998;5.140;2023-04-03T14:39:48;2.17;;;1.00;;
65558;SDS011;52203;51.998;5.140;2023-04-03T14:42:19;2.40;;;1.00;;
65558;SDS011;52203;51.998;5.140;2023-04-03T14:44:47;3.30;;;1.75;;
65558;SDS011;52203;51.998;5.140;2023-04-03T14:47:14;1.83;;;0.80;;
65558;SDS011;52203;51.998;5.140;2023-04-03T14:49:41;3.03;;;0.98;;
65558;SDS011;52203;51.998;5.140;2023-04-03T14:52:24;1.40;;;0.80;;
65558;SDS011;52203;51.998;5.140;2023-04-03T14:54:52;3.28;;;1.10;;
65558;SDS011;52203;51.998;5.140;2023-04-03T14:57:27;2.47;;;1.10;;
65558;SDS011;52203;51.998;5.140;2023-04-03T14:59:54;1.92;;;0.98;;
65558;SDS011;52203;51.998;5.140;2023-04-03T15:04:51;2.08;;;1.02;;
65558;SDS011;52203;51.998;5.140;2023-04-03T15:07:16;3.03;;;1.05;;
65558;SDS011;52203;51.998;5.140;2023-04-03T15:09:42;4.00;;;1.15;;
65558;SDS011;52203;51.998;5.140;2023-04-03T15:12:08;3.03;;;1.10;;
65558;SDS011;52203;51.998;5.140;2023-04-03T15:14:33;2.75;;;0.90;;
65558;SDS011;52203;51.998;5.140;2023-04-03T15:16:59;2.13;;;0.88;;
65558;SDS011;52203;51.998;5.140;2023-04-03T15:19:24;3.63;;;0.95;;
65558;SDS011;52203;51.998;5.140;2023-04-03T15:21:50;2.03;;;1.20;;
65558;SDS011;52203;51.998;5.140;2023-04-03T15:24:15;2.08;;;1.13;;
65558;SDS011;52203;51.998;5.140;2023-04-03T15:26:41;4.47;;;1.40;;
65558;SDS011;52203;51.998;5.140;2023-04-03T15:29:07;3.22;;;0.90;;
65558;SDS011;52203;51.998;5.140;2023-04-03T15:31:32;2.65;;;1.08;;
65558;SDS011;52203;51.998;5.140;2023-04-03T15:33:58;3.08;;;1.17;;
65558;SDS011;52203;51.998;5.140;2023-04-03T15:36:24;2.88;;;1.40;;
65558;SDS011;52203;51.998;5.140;2023-04-03T15:38:50;4.13;;;1.10;;
65558;SDS011;52203;51.998;5.140;2023-04-03T15:41:15;4.82;;;1.20;;
65558;SDS011;52203;51.998;5.140;2023-04-03T15:43:41;4.13;;;1.20;;
65558;SDS011;52203;51.998;5.140;2023-04-03T15:46:06;3.70;;;1.48;;
65558;SDS011;52203;51.998;5.140;2023-04-03T15:48:32;3.95;;;1.13;;
65558;SDS011;52203;51.998;5.140;2023-04-03T15:50:57;4.03;;;1.40;;
65558;SDS011;52203;51.998;5.140;2023-04-03T15:53:24;3.67;;;1.30;;
65558;SDS011;52203;51.998;5.140;2023-04-03T15:55:50;2.92;;;1.27;;
65558;SDS011;52203;51.998;5.140;2023-04-03T15:58:15;2.60;;;1.15;;
65558;SDS011;52203;51.998;5.140;2023-04-03T16:00:41;2.22;;;1.00;;
65558;SDS011;52203;51.998;5.140;2023-04-03T16:03:11;2.00;;;1.10;;
65558;SDS011;52203;51.998;5.140;2023-04-03T16:05:39;1.80;;;1.25;;
65558;SDS011;52203;51.998;5.140;2023-04-03T16:08:05;3.30;;;1.15;;
65558;SDS011;52203;51.998;5.140;2023-04-03T16:10:32;3.25;;;1.33;;
65558;SDS011;52203;51.998;5.140;2023-04-03T16:12:58;3.63;;;1.48;;
65558;SDS011;52203;51.998;5.140;2023-04-03T16:15:24;3.40;;;1.40;;
65558;SDS011;52203;51.998;5.140;2023-04-03T16:17:50;3.10;;;1.20;;
65558;SDS011;52203;51.998;5.140;2023-04-03T16:20:17;2.33;;;1.20;;
65558;SDS011;52203;51.998;5.140;2023-04-03T16:22:43;4.97;;;1.20;;
65558;SDS011;52203;51.998;5.140;2023-04-03T16:25:09;3.40;;;1.67;;
65558;SDS011;52203;51.998;5.140;2023-04-03T16:27:35;9.60;;;1.60;;
65558;SDS011;52203;51.998;5.140;2023-04-03T16:30:01;3.95;;;1.40;;
65558;SDS011;52203;51.998;5.140;2023-04-03T16:32:29;3.17;;;1.30;;
65558;SDS011;52203;51.998;5.140;2023-04-03T16:34:56;1.67;;;1.00;;
65558;SDS011;52203;51.998;5.140;2023-04-03T16:37:22;3.17;;;1.42;;
65558;SDS011;52203;51.998;5.140;2023-04-03T16:39:48;3.42;;;1.30;;
65558;SDS011;52203;51.998;5.140;2023-04-03T16:42:13;4.20;;;1.15;;
65558;SDS011;52203;51.998;5.140;2023-04-03T16:44:39;2.90;;;1.40;;
65558;SDS011;52203;51.998;5.140;2023-04-03T16:47:05;4.80;;;1.23;;
65558;SDS011;52203;51.998;5.140;2023-04-03T16:49:32;4.20;;;1.40;;
65558;SDS011;52203;51.998;5.140;2023-04-03T16:52:07;4.30;;;1.20;;
65558;SDS011;52203;51.998;5.140;2023-04-03T16:54:33;4.25;;;1.20;;
65558;SDS011;52203;51.998;5.140;2023-04-03T16:56:59;3.50;;;1.27;;
65558;SDS011;52203;51.998;5.140;2023-04-03T16:59:24;4.78;;;1.30;;
65558;SDS011;52203;51.998;5.140;2023-04-03T17:01:50;4.43;;;1.73;;
65558;SDS011;52203;51.998;5.140;2023-04-03T17:04:15;3.78;;;1.50;;
65558;SDS011;52203;51.998;5.140;2023-04-03T17:06:41;4.63;;;1.52;;
65558;SDS011;52203;51.998;5.140;2023-04-03T17:09:07;4.13;;;1.42;;
65558;SDS011;52203;51.998;5.140;2023-04-03T17:11:34;3.38;;;1.27;;
65558;SDS011;52203;51.998;5.140;2023-04-03T17:14:00;5.03;;;1.35;;
65558;SDS011;52203;51.998;5.140;2023-04-03T17:16:40;1.80;;;1.10;;
65558;SDS011;52203;51.998;5.140;2023-04-03T17:19:08;4.05;;;1.40;;
65558;SDS011;52203;51.998;5.140;2023-04-03T17:21:42;3.60;;;1.48;;
65558;SDS011;52203;51.998;5.140;2023-04-03T17:24:09;3.92;;;1.35;;
65558;SDS011;52203;51.998;5.140;2023-04-03T17:26:37;3.10;;;1.50;;
65558;SDS011;52203;51.998;5.140;2023-04-03T17:29:09;5.57;;;1.40;;
65558;SDS011;52203;51.998;5.140;2023-04-03T17:31:35;3.55;;;1.50;;
65558;SDS011;52203;51.998;5.140;2023-04-03T17:34:01;2.67;;;1.20;;
65558;SDS011;52203;51.998;5.140;2023-04-03T17:36:30;4.30;;;1.27;;
65558;SDS011;52203;51.998;5.140;2023-04-03T17:38:57;3.33;;;1.40;;
65558;SDS011;52203;51.998;5.140;2023-04-03T17:41:22;4.07;;;1.25;;
65558;SDS011;52203;51.998;5.140;2023-04-03T17:43:48;3.63;;;1.15;;
65558;SDS011;52203;51.998;5.140;2023-04-03T17:46:14;3.90;;;1.40;;
65558;SDS011;52203;51.998;5.140;2023-04-03T17:48:41;2.72;;;1.25;;
65558;SDS011;52203;51.998;5.140;2023-04-03T17:51:11;4.10;;;1.63;;
65558;SDS011;52203;51.998;5.140;2023-04-03T17:53:39;3.30;;;1.50;;
65558;SDS011;52203;51.998;5.140;2023-04-03T17:56:07;3.45;;;1.60;;
65558;SDS011;52203;51.998;5.140;2023-04-03T17:58:34;3.58;;;1.25;;
65558;SDS011;52203;51.998;5.140;2023-04-03T18:07:58;2.47;;;1.38;;
65558;SDS011;52203;51.998;5.140;2023-04-03T18:14:49;4.13;;;1.40;;
65558;SDS011;52203;51.998;5.140;2023-04-03T18:20:24;4.97;;;1.30;;
65558;SDS011;52203;51.998;5.140;2023-04-03T18:22:49;3.78;;;1.20;;
65558;SDS011;52203;51.998;5.140;2023-04-03T18:26:00;5.28;;;1.48;;
65558;SDS011;52203;51.998;5.140;2023-04-03T18:32:18;2.88;;;1.67;;
65558;SDS011;52203;51.998;5.140;2023-04-03T18:35:21;3.80;;;1.70;;
65558;SDS011;52203;51.998;5.140;2023-04-03T18:37:46;5.20;;;1.63;;
65558;SDS011;52203;51.998;5.140;2023-04-03T18:40:12;5.53;;;1.50;;
65558;SDS011;52203;51.998;5.140;2023-04-03T18:43:16;2.30;;;1.30;;
65558;SDS011;52203;51.998;5.140;2023-04-03T18:46:31;3.05;;;1.30;;
65558;SDS011;52203;51.998;5.140;2023-04-03T18:49:34;2.75;;;1.50;;
65558;SDS011;52203;51.998;5.140;2023-04-03T18:52:36;3.20;;;1.65;;
65558;SDS011;52203;51.998;5.140;2023-04-03T18:55:41;4.60;;;1.77;;
65558;SDS011;52203;51.998;5.140;2023-04-03T18:58:46;2.80;;;1.52;;
65558;SDS011;52203;51.998;5.140;2023-04-03T19:01:12;3.65;;;1.23;;
65558;SDS011;52203;51.998;5.140;2023-04-03T19:03:41;5.38;;;1.90;;
65558;SDS011;52203;51.998;5.140;2023-04-03T19:06:07;5.07;;;1.50;;
65558;SDS011;52203;51.998;5.140;2023-04-03T19:08:33;4.50;;;1.50;;
65558;SDS011;52203;51.998;5.140;2023-04-03T19:11:02;5.25;;;1.63;;
65558;SDS011;52203;51.998;5.140;2023-04-03T19:13:54;4.38;;;2.05;;
65558;SDS011;52203;51.998;5.140;2023-04-03T19:19:57;2.80;;;1.33;;
65558;SDS011;52203;51.998;5.140;2023-04-03T19:22:51;3.40;;;1.30;;
65558;SDS011;52203;51.998;5.140;2023-04-03T19:29:04;2.45;;;1.35;;
65558;SDS011;52203;51.998;5.140;2023-04-03T19:31:32;3.85;;;1.73;;
65558;SDS011;52203;51.998;5.140;2023-04-03T19:34:16;3.72;;;1.60;;
65558;SDS011;52203;51.998;5.140;2023-04-03T19:36:51;3.72;;;1.52;;
65558;SDS011;52203;51.998;5.140;2023-04-03T19:39:19;6.60;;;1.70;;
65558;SDS011;52203;51.998;5.140;2023-04-03T19:41:45;4.55;;;1.60;;
65558;SDS011;52203;51.998;5.140;2023-04-03T19:44:43;2.53;;;1.23;;
65558;SDS011;52203;51.998;5.140;2023-04-03T19:47:13;3.78;;;1.45;;
65558;SDS011;52203;51.998;5.140;2023-04-03T19:50:12;5.47;;;2.40;;
65558;SDS011;52203;51.998;5.140;2023-04-03T19:53:23;5.60;;;2.00;;
65558;SDS011;52203;51.998;5.140;2023-04-03T19:56:02;4.40;;;1.77;;
65558;SDS011;52203;51.998;5.140;2023-04-03T19:59:00;4.78;;;1.60;;
65558;SDS011;52203;51.998;5.140;2023-04-03T20:01:42;2.03;;;1.23;;
65558;SDS011;52203;51.998;5.140;2023-04-03T20:04:10;4.13;;;1.80;;
65558;SDS011;52203;51.998;5.140;2023-04-03T20:10:37;2.38;;;1.27;;
65558;SDS011;52203;51.998;5.140;2023-04-03T20:19:34;3.65;;;1.50;;
65558;SDS011;52203;51.998;5.140;2023-04-03T20:25:52;2.13;;;1.23;;
65558;SDS011;52203;51.998;5.140;2023-04-03T20:32:15;3.08;;;1.50;;
65558;SDS011;52203;51.998;5.140;2023-04-03T20:34:52;4.15;;;1.58;;
65558;SDS011;52203;51.998;5.140;2023-04-03T20:38:03;4.20;;;1.90;;
65558;SDS011;52203;51.998;5.140;2023-04-03T20:51:50;5.45;;;1.60;;
65558;SDS011;52203;51.998;5.140;2023-04-03T21:01:44;5.20;;;1.75;;
65558;SDS011;52203;51.998;5.140;2023-04-03T21:22:47;3.75;;;1.85;;
65558;SDS011;52203;51.998;5.140;2023-04-03T21:25:59;7.68;;;2.33;;
65558;SDS011;52203;51.998;5.140;2023-04-03T21:32:20;2.85;;;2.08;;
65558;SDS011;52203;51.998;5.140;2023-04-03T21:38:34;3.60;;;1.85;;
65558;SDS011;52203;51.998;5.140;2023-04-03T21:41:05;4.57;;;2.13;;
65558;SDS011;52203;51.998;5.140;2023-04-03T21:54:15;5.25;;;2.20;;
65558;SDS011;52203;51.998;5.140;2023-04-03T22:00:32;5.35;;;2.42;;
65558;SDS011;52203;51.998;5.140;2023-04-03T22:06:34;4.18;;;2.30;;
65558;SDS011;52203;51.998;5.140;2023-04-03T22:36:37;5.55;;;2.47;;
